Time;durP1;ratioP1;P1;durP2;ratioP2;P2;SDS_P1;SDS_P2;PMS_P1;PMS_P2;Temp;Humidity;BMP_temperature;BMP_pressure;BME280_temperature;BME280_humidity;BME280_pressure;Samples;Min_cycle;Max_cycle;Signal;HPM_P1;HPM_P2
2021/01/06 00:05:28;;;;;;;6.78;3.30;;;3.00;1.00;;;;;;5041075;28;20198;-78
2021/01/06 00:11:17;;;;;;;3.83;3.20;;;3.10;1.00;;;;;;5055344;28;20306;-78
2021/01/06 00:13:54;;;;;;;7.50;3.22;;;3.00;1.00;;;;;;5053593;28;20176;-78
2021/01/06 00:19:41;;;;;;;11.43;3.63;;;3.00;1.00;;;;;;5035069;28;20585;-76
2021/01/06 00:22:07;;;;;;;7.53;3.10;;;3.00;1.00;;;;;;5054702;28;20164;-75
2021/01/06 00:24:33;;;;;;;4.60;3.27;;;3.10;1.00;;;;;;5055439;28;20156;-75
2021/01/06 00:27:23;;;;;;;5.57;3.47;;;3.10;1.00;;;;;;5036340;28;20450;-78
2021/01/06 00:29:49;;;;;;;5.95;3.10;;;3.00;1.00;;;;;;5042066;28;20247;-75
2021/01/06 00:35:42;;;;;;;5.38;2.88;;;3.20;1.00;;;;;;5041805;28;20204;-75
2021/01/06 00:38:08;;;;;;;2.58;2.05;;;3.30;1.00;;;;;;5035281;28;20175;-75
2021/01/06 00:40:36;;;;;;;4.87;2.93;;;3.20;1.00;;;;;;5043665;28;20168;-75
2021/01/06 00:43:05;;;;;;;5.35;2.85;;;3.30;1.00;;;;;;5054778;28;20395;-75
2021/01/06 00:45:31;;;;;;;5.63;3.05;;;3.40;1.00;;;;;;5045507;28;20175;-75
2021/01/06 00:47:58;;;;;;;8.18;3.15;;;3.40;1.00;;;;;;5053979;28;20239;-75
2021/01/06 00:50:26;;;;;;;7.18;3.38;;;3.20;1.00;;;;;;5048382;28;20173;-75
2021/01/06 00:53:06;;;;;;;7.72;3.50;;;3.10;1.00;;;;;;5049038;28;20229;-78
2021/01/06 00:55:32;;;;;;;5.80;3.10;;;3.00;1.00;;;;;;5034522;28;20246;-75
2021/01/06 00:58:12;;;;;;;2.77;2.27;;;3.10;1.00;;;;;;5034697;28;20550;-75
2021/01/06 01:00:38;;;;;;;3.85;2.15;;;3.00;1.00;;;;;;5035484;28;20477;-75
2021/01/06 01:03:06;;;;;;;6.20;2.70;;;3.10;1.00;;;;;;5035157;28;20164;-75
2021/01/06 01:06:17;;;;;;;3.47;2.72;;;3.00;1.00;;;;;;5034432;28;20399;-78
2021/01/06 01:09:05;;;;;;;6.50;2.85;;;2.90;1.00;;;;;;5038393;28;20178;-78
2021/01/06 01:11:36;;;;;;;3.63;2.85;;;3.00;1.00;;;;;;5042523;28;20203;-78
2021/01/06 01:17:23;;;;;;;8.15;4.07;;;3.10;1.00;;;;;;5037186;28;20671;-75
2021/01/06 01:20:12;;;;;;;5.60;3.03;;;3.20;1.00;;;;;;5035663;28;20160;-78
2021/01/06 01:22:49;;;;;;;8.77;3.50;;;3.20;1.00;;;;;;5047374;28;20175;-75
2021/01/06 01:25:24;;;;;;;6.32;3.10;;;3.20;1.00;;;;;;5054247;28;20561;-75
2021/01/06 01:28:06;;;;;;;5.45;2.85;;;3.30;1.00;;;;;;5052700;28;20178;-74
2021/01/06 01:30:32;;;;;;;7.28;3.20;;;3.30;1.00;;;;;;5051142;28;20195;-75
2021/01/06 01:36:48;;;;;;;5.00;2.80;;;3.20;1.00;;;;;;5033703;28;20757;-78
2021/01/06 01:39:19;;;;;;;4.78;3.08;;;3.20;1.00;;;;;;5034182;28;20157;-75
2021/01/06 01:41:57;;;;;;;3.20;2.33;;;3.00;1.00;;;;;;5047756;28;20167;-75
2021/01/06 01:44:22;;;;;;;5.90;2.88;;;3.00;1.00;;;;;;5054004;28;20694;-75
2021/01/06 01:50:12;;;;;;;6.07;3.70;;;3.20;1.00;;;;;;5048835;28;20629;-75
2021/01/06 01:56:00;;;;;;;6.80;3.38;;;3.10;1.00;;;;;;5034505;28;20227;-78
2021/01/06 01:58:27;;;;;;;6.40;3.30;;;3.10;1.00;;;;;;5046902;28;20164;-75
2021/01/06 02:00:56;;;;;;;8.90;4.40;;;3.10;1.00;;;;;;5044571;28;20182;-75
2021/01/06 02:03:32;;;;;;;5.75;3.35;;;3.10;1.00;;;;;;5034395;28;20169;-75
2021/01/06 02:06:07;;;;;;;8.02;3.10;;;3.10;1.00;;;;;;5043920;28;20171;-75
2021/01/06 02:08:38;;;;;;;7.20;4.10;;;3.10;1.00;;;;;;5053395;28;20186;-75
2021/01/06 02:11:16;;;;;;;4.13;2.45;;;3.20;1.00;;;;;;5051544;28;20178;-75
2021/01/06 02:13:53;;;;;;;9.68;3.15;;;3.10;1.00;;;;;;5053574;28;20179;-75
2021/01/06 02:16:31;;;;;;;5.50;2.58;;;3.00;1.00;;;;;;5057033;28;20222;-74
2021/01/06 02:19:15;;;;;;;4.93;3.05;;;2.90;1.00;;;;;;5058128;28;20333;-75
2021/01/06 02:21:42;;;;;;;5.00;3.38;;;3.10;1.00;;;;;;5040516;28;20663;-74
2021/01/06 02:24:08;;;;;;;6.63;3.30;;;3.00;1.00;;;;;;5040972;28;20167;-75
2021/01/06 02:26:42;;;;;;;4.07;3.23;;;3.00;1.00;;;;;;5057710;28;20164;-75
2021/01/06 02:29:12;;;;;;;9.13;3.65;;;3.00;1.00;;;;;;5057232;28;20417;-75
2021/01/06 02:31:43;;;;;;;7.32;3.10;;;3.00;1.00;;;;;;5049060;28;20204;-74
2021/01/06 02:37:31;;;;;;;4.63;2.72;;;3.10;1.00;;;;;;5037074;28;20175;-78
2021/01/06 02:39:56;;;;;;;8.70;3.03;;;3.20;1.00;;;;;;5037493;28;20153;-78
2021/01/06 02:46:00;;;;;;;3.03;2.55;;;3.30;1.00;;;;;;5050661;28;20170;-78
2021/01/06 02:48:30;;;;;;;5.50;2.97;;;3.20;1.00;;;;;;5056989;28;20170;-75
2021/01/06 02:51:05;;;;;;;3.72;2.85;;;3.20;1.00;;;;;;5049663;28;20176;-78
2021/01/06 02:57:21;;;;;;;5.25;2.67;;;3.20;1.00;;;;;;5039459;28;20284;-78
2021/01/06 03:03:12;;;;;;;5.95;3.13;;;3.10;1.00;;;;;;5037090;28;20171;-78
2021/01/06 03:12:29;;;;;;;5.15;2.95;;;3.20;1.00;;;;;;5040990;28;20594;-78
2021/01/06 03:15:06;;;;;;;3.00;2.42;;;3.10;1.00;;;;;;5056765;28;20192;-78
2021/01/06 03:17:32;;;;;;;5.93;2.80;;;3.20;1.00;;;;;;5054807;28;20174;-78
2021/01/06 03:20:14;;;;;;;5.83;2.90;;;3.30;1.00;;;;;;5056122;28;20164;-74
2021/01/06 03:22:54;;;;;;;5.00;2.80;;;3.20;1.00;;;;;;5036276;28;20395;-75
2021/01/06 03:25:20;;;;;;;3.88;2.60;;;3.30;1.00;;;;;;5035121;28;20212;-78
2021/01/06 03:27:56;;;;;;;6.23;3.40;;;3.30;1.00;;;;;;5034835;28;20192;-78
2021/01/06 03:30:25;;;;;;;4.65;2.88;;;3.30;1.00;;;;;;5040475;28;20183;-78
2021/01/06 03:36:44;;;;;;;4.10;2.70;;;3.20;1.00;;;;;;5045483;28;20251;-75
2021/01/06 03:39:40;;;;;;;3.25;2.30;;;3.20;1.00;;;;;;5036737;28;20608;-78
2021/01/06 03:42:36;;;;;;;2.65;2.38;;;3.20;1.00;;;;;;5035943;28;20252;-78
2021/01/06 03:45:48;;;;;;;7.72;3.45;;;3.10;1.00;;;;;;5047435;28;20172;-78
2021/01/06 03:48:31;;;;;;;3.78;3.05;;;3.10;1.00;;;;;;5036431;28;20157;-74
2021/01/06 03:51:05;;;;;;;3.83;2.58;;;3.20;1.00;;;;;;5048379;28;20258;-75
2021/01/06 03:53:41;;;;;;;5.32;3.15;;;3.00;1.00;;;;;;5036259;28;20200;-75
2021/01/06 03:56:27;;;;;;;4.15;2.30;;;3.10;1.00;;;;;;5036090;28;20184;-75
2021/01/06 03:58:59;;;;;;;4.53;2.38;;;3.10;1.00;;;;;;5044279;28;20176;-75
2021/01/06 04:05:24;;;;;;;4.55;2.60;;;3.20;1.00;;;;;;5055736;28;20244;-74
2021/01/06 04:07:55;;;;;;;4.43;2.70;;;3.20;1.00;;;;;;5035710;28;20200;-75
2021/01/06 04:10:37;;;;;;;6.03;3.20;;;3.20;1.00;;;;;;5035838;28;20222;-75
2021/01/06 04:13:04;;;;;;;5.75;3.42;;;3.30;1.00;;;;;;5040458;28;20183;-75
2021/01/06 04:15:30;;;;;;;6.03;3.30;;;3.30;1.00;;;;;;5035896;28;20280;-75
2021/01/06 04:18:12;;;;;;;4.20;2.83;;;3.30;1.00;;;;;;5055402;28;20216;-74
2021/01/06 04:20:40;;;;;;;4.18;2.88;;;3.30;1.00;;;;;;5048544;28;20453;-78
2021/01/06 04:23:09;;;;;;;5.40;2.60;;;3.30;1.00;;;;;;5035599;28;20252;-75
2021/01/06 04:25:45;;;;;;;4.07;2.60;;;3.40;1.00;;;;;;5040587;28;20525;-75
2021/01/06 04:32:06;;;;;;;3.22;2.40;;;3.20;1.00;;;;;;5035161;28;20214;-78
2021/01/06 04:35:12;;;;;;;5.85;2.75;;;3.20;1.00;;;;;;5035863;28;20161;-74
2021/01/06 04:38:00;;;;;;;3.78;2.58;;;3.30;1.00;;;;;;5041676;28;20254;-75
2021/01/06 04:41:12;;;;;;;4.55;2.03;;;3.20;1.00;;;;;;5037272;28;20184;-75
2021/01/06 04:43:43;;;;;;;4.55;2.67;;;3.30;1.00;;;;;;5035028;28;20161;-75
2021/01/06 04:47:00;;;;;;;3.28;2.60;;;3.30;1.00;;;;;;5041767;28;20655;-78
2021/01/06 04:49:28;;;;;;;5.10;2.15;;;3.40;1.00;;;;;;5054713;28;20608;-75
2021/01/06 04:52:27;;;;;;;4.22;3.10;;;3.30;1.00;;;;;;5047116;28;20172;-75
2021/01/06 04:55:16;;;;;;;3.10;2.63;;;3.30;1.00;;;;;;5035119;28;20157;-74
2021/01/06 04:58:26;;;;;;;3.72;2.53;;;3.30;1.00;;;;;;5034879;28;20683;-78
2021/01/06 05:01:12;;;;;;;4.63;2.83;;;3.30;1.00;;;;;;5049645;28;20172;-74
2021/01/06 05:03:57;;;;;;;4.80;2.95;;;3.40;1.00;;;;;;5034857;28;20161;-75
2021/01/06 05:16:54;;;;;;;5.38;2.80;;;3.30;1.00;;;;;;5053859;28;20256;-78
2021/01/06 05:19:36;;;;;;;7.32;3.42;;;3.20;1.00;;;;;;5054308;28;20717;-75
2021/01/06 05:22:05;;;;;;;6.82;2.65;;;3.20;1.00;;;;;;5034891;28;20172;-75
2021/01/06 05:24:46;;;;;;;7.22;2.22;;;3.30;1.00;;;;;;5034532;28;20164;-75
2021/01/06 05:27:28;;;;;;;4.38;2.58;;;3.20;1.00;;;;;;5034324;28;20172;-75
2021/01/06 05:30:00;;;;;;;5.45;3.00;;;3.30;1.00;;;;;;5035863;28;20623;-74
2021/01/06 05:32:35;;;;;;;7.20;2.55;;;3.40;1.00;;;;;;5034134;28;20192;-78
2021/01/06 05:41:46;;;;;;;3.25;2.53;;;3.50;1.00;;;;;;5051995;28;20222;-78
2021/01/06 05:48:05;;;;;;;5.78;2.85;;;3.50;1.00;;;;;;5053680;28;20191;-78
2021/01/06 05:50:39;;;;;;;5.95;2.53;;;3.50;1.00;;;;;;5033331;28;20227;-75
2021/01/06 05:53:12;;;;;;;8.38;3.60;;;3.50;1.00;;;;;;5034091;28;20256;-75
2021/01/06 05:55:47;;;;;;;4.55;3.20;;;3.60;1.00;;;;;;5034109;28;20184;-75
2021/01/06 05:58:32;;;;;;;7.43;3.30;;;3.70;1.00;;;;;;5050869;28;20171;-75
2021/01/06 06:01:37;;;;;;;4.30;2.55;;;3.60;1.00;;;;;;5053785;28;20171;-75
2021/01/06 06:07:24;;;;;;;4.85;2.38;;;3.60;1.00;;;;;;5037198;28;20245;-78
2021/01/06 06:10:30;;;;;;;3.60;2.47;;;3.60;1.00;;;;;;5046102;28;20251;-78
2021/01/06 06:16:46;;;;;;;3.10;2.83;;;3.70;1.00;;;;;;5033342;28;20242;-79
2021/01/06 06:19:40;;;;;;;6.47;3.63;;;3.70;1.00;;;;;;5033348;28;20188;-75
2021/01/06 06:22:36;;;;;;;6.20;3.35;;;3.60;1.00;;;;;;5033984;28;20186;-78
2021/01/06 06:25:15;;;;;;;7.85;3.50;;;3.50;1.00;;;;;;5039062;28;20721;-75
2021/01/06 06:28:00;;;;;;;5.10;2.97;;;3.60;1.00;;;;;;5052467;28;20171;-75
2021/01/06 06:31:08;;;;;;;4.90;1.80;;;3.60;1.00;;;;;;5052558;28;20152;-75
2021/01/06 06:33:35;;;;;;;5.40;2.85;;;3.60;1.00;;;;;;5028797;28;20156;-75
2021/01/06 06:36:10;;;;;;;3.97;2.75;;;3.50;1.00;;;;;;5010628;28;20221;-75
2021/01/06 06:38:42;;;;;;;5.03;3.13;;;3.50;1.00;;;;;;4994014;28;20583;-75
2021/01/06 06:41:10;;;;;;;4.45;3.00;;;3.60;1.00;;;;;;5018750;28;20176;-78
2021/01/06 06:43:40;;;;;;;6.45;3.17;;;3.60;1.00;;;;;;5030177;28;20172;-79
2021/01/06 06:46:21;;;;;;;4.63;2.83;;;3.60;1.00;;;;;;5028246;28;20262;-78
2021/01/06 06:49:11;;;;;;;4.15;2.72;;;3.60;1.00;;;;;;5030346;28;20168;-78
2021/01/06 06:52:09;;;;;;;6.65;3.42;;;3.50;1.00;;;;;;5030623;28;20773;-78
2021/01/06 06:55:14;;;;;;;4.00;2.30;;;3.50;1.00;;;;;;5018279;28;20185;-75
2021/01/06 06:57:56;;;;;;;5.60;3.47;;;3.60;1.00;;;;;;4952092;29;20183;-75
2021/01/06 07:00:25;;;;;;;4.43;2.30;;;3.60;1.00;;;;;;4952097;28;20279;-75
2021/01/06 07:02:58;;;;;;;5.00;3.38;;;3.60;1.00;;;;;;4951029;29;20183;-75
2021/01/06 07:05:36;;;;;;;7.50;3.67;;;3.60;1.00;;;;;;4958515;28;20734;-75
2021/01/06 07:08:07;;;;;;;5.85;3.38;;;3.70;1.00;;;;;;4963137;28;20399;-75
2021/01/06 07:10:43;;;;;;;6.40;3.15;;;3.70;1.00;;;;;;4960218;28;20191;-75
2021/01/06 07:13:19;;;;;;;5.97;3.08;;;3.70;1.00;;;;;;4935933;29;20191;-74
2021/01/06 07:15:54;;;;;;;7.95;2.97;;;3.80;1.00;;;;;;4955452;28;20254;-75
2021/01/06 07:18:26;;;;;;;4.85;3.00;;;3.80;1.00;;;;;;4963541;28;20189;-75
2021/01/06 07:21:16;;;;;;;6.57;3.50;;;3.90;1.00;;;;;;4949730;28;20199;-78
2021/01/06 07:23:53;;;;;;;6.10;3.15;;;3.90;1.00;;;;;;4951024;28;20187;-75
2021/01/06 07:30:24;;;;;;;4.90;2.22;;;3.80;1.00;;;;;;4967173;28;20245;-78
2021/01/06 07:32:49;;;;;;;5.22;2.63;;;3.80;1.00;;;;;;4942166;28;20171;-79
2021/01/06 07:36:00;;;;;;;5.67;2.30;;;3.80;1.00;;;;;;5036004;28;20184;-78
2021/01/06 07:38:33;;;;;;;6.70;2.88;;;3.80;1.00;;;;;;5052658;28;20221;-75
2021/01/06 07:40:59;;;;;;;4.95;3.10;;;;;;;;;;5046844;28;20191;-75
2021/01/06 07:43:28;;;;;;;7.25;3.08;;;3.90;1.00;;;;;;5034599;28;20173;-75
2021/01/06 07:45:59;;;;;;;4.32;2.90;;;3.90;1.00;;;;;;5039442;28;20172;-75
2021/01/06 07:48:44;;;;;;;6.18;2.35;;;3.90;1.00;;;;;;5054586;28;20168;-75
2021/01/06 07:51:27;;;;;;;4.47;3.10;;;3.90;1.00;;;;;;5050092;28;20255;-76
2021/01/06 07:54:08;;;;;;;5.75;2.92;;;3.90;1.00;;;;;;5035082;28;20251;-78
2021/01/06 07:56:40;;;;;;;9.10;2.72;;;4.00;1.00;;;;;;5043736;28;20203;-78
2021/01/06 07:59:18;;;;;;;2.95;2.20;;;3.90;1.00;;;;;;5054893;28;20172;-78
2021/01/06 08:01:49;;;;;;;6.38;3.30;;;3.80;1.00;;;;;;5049140;28;20182;-78
2021/01/06 08:04:23;;;;;;;4.65;2.38;;;3.90;1.00;;;;;;5054608;28;20198;-79
2021/01/06 08:06:55;;;;;;;5.78;2.80;;;4.00;1.00;;;;;;5054853;28;20773;-76
2021/01/06 08:09:29;;;;;;;4.05;2.47;;;4.20;1.00;;;;;;5054726;28;20164;-75
2021/01/06 08:11:56;;;;;;;4.70;2.65;;;4.00;1.00;;;;;;5042516;28;20175;-75
2021/01/06 08:14:33;;;;;;;4.60;3.17;;;4.00;1.00;;;;;;5038793;28;20180;-75
2021/01/06 08:17:10;;;;;;;4.15;2.72;;;4.00;1.00;;;;;;5049461;28;20207;-75
2021/01/06 08:19:45;;;;;;;3.67;2.08;;;4.00;1.00;;;;;;5042987;28;20175;-78
2021/01/06 08:22:11;;;;;;;5.30;2.30;;;;;;;;;;5042217;28;20195;-79
2021/01/06 08:24:46;;;;;;;6.03;2.83;;;4.00;1.00;;;;;;5052921;28;20524;-75
2021/01/06 08:27:26;;;;;;;3.78;2.45;;;4.00;1.00;;;;;;5054353;28;20422;-75
2021/01/06 08:30:15;;;;;;;3.33;2.35;;;4.20;1.00;;;;;;5034541;28;20250;-78
2021/01/06 08:32:41;;;;;;;4.40;2.75;;;4.30;1.00;;;;;;5034300;28;20218;-75
2021/01/06 08:35:09;;;;;;;2.40;2.20;;;4.40;1.00;;;;;;5034509;28;20279;-75
2021/01/06 08:37:51;;;;;;;2.28;2.08;;;4.30;1.00;;;;;;5033896;28;20187;-78
2021/01/06 08:40:28;;;;;;;4.43;2.55;;;4.40;1.00;;;;;;5034313;28;20152;-75
2021/01/06 08:42:55;;;;;;;5.55;2.65;;;4.40;1.00;;;;;;5032645;28;20176;-76
2021/01/06 08:45:33;;;;;;;4.47;1.95;;;4.30;1.00;;;;;;5032758;28;20184;-75
2021/01/06 08:48:22;;;;;;;2.40;2.20;;;4.50;1.00;;;;;;5044779;28;20178;-75
2021/01/06 08:50:48;;;;;;;2.50;1.88;;;4.50;1.00;;;;;;5034030;28;20520;-78
2021/01/06 08:53:14;;;;;;;4.90;1.80;;;4.40;1.00;;;;;;5042875;28;20168;-78
2021/01/06 08:55:53;;;;;;;4.18;2.28;;;4.30;1.00;;;;;;5053906;28;20196;-78
2021/01/06 08:58:19;;;;;;;3.40;2.50;;;;;;;;;;5053849;28;20162;-75
2021/01/06 09:00:50;;;;;;;2.30;2.07;;;4.40;1.00;;;;;;5054265;28;20246;-78
2021/01/06 09:03:33;;;;;;;2.50;2.10;;;4.30;1.00;;;;;;5053706;28;20402;-75
2021/01/06 09:06:17;;;;;;;2.10;1.85;;;4.30;1.00;;;;;;5053615;28;20172;-78
2021/01/06 09:08:49;;;;;;;2.72;2.00;;;4.10;1.00;;;;;;5053811;28;20237;-78
2021/01/06 09:11:31;;;;;;;3.92;2.03;;;4.20;1.00;;;;;;5053607;28;20166;-78
2021/01/06 09:14:32;;;;;;;2.13;1.58;;;4.30;1.00;;;;;;5053297;28;20290;-78
2021/01/06 09:17:12;;;;;;;2.10;1.73;;;4.30;1.00;;;;;;5019877;28;20258;-75
2021/01/06 09:19:45;;;;;;;4.05;1.92;;;4.20;1.00;;;;;;5011282;28;20188;-78
2021/01/06 09:22:14;;;;;;;2.85;1.80;;;4.10;1.00;;;;;;5020501;28;20215;-78
2021/01/06 09:24:41;;;;;;;1.60;1.50;;;4.30;1.00;;;;;;5031253;28;20210;-78
2021/01/06 09:27:31;;;;;;;3.58;1.75;;;4.50;1.00;;;;;;5031077;28;20196;-79
2021/01/06 09:29:59;;;;;;;2.72;1.73;;;4.60;1.00;;;;;;5031238;28;20200;-75
2021/01/06 09:32:31;;;;;;;2.60;1.92;;;4.60;1.00;;;;;;5031096;28;20165;-78
2021/01/06 09:35:06;;;;;;;2.05;1.85;;;4.70;1.00;;;;;;5030947;28;20194;-78
2021/01/06 09:37:36;;;;;;;2.42;1.75;;;4.40;1.00;;;;;;5014498;28;20180;-78
2021/01/06 09:40:09;;;;;;;1.85;1.52;;;4.50;1.00;;;;;;5030967;28;20180;-78
2021/01/06 09:42:38;;;;;;;2.83;1.95;;;4.50;1.00;;;;;;5030667;28;20172;-78
2021/01/06 09:45:04;;;;;;;2.38;1.80;;;;;;;;;;5030925;28;20156;-76
2021/01/06 09:47:42;;;;;;;3.45;2.08;;;4.50;1.00;;;;;;5030756;28;20188;-75
2021/01/06 09:50:24;;;;;;;3.92;2.42;;;4.60;1.00;;;;;;5030927;28;20195;-78
2021/01/06 09:52:53;;;;;;;2.75;1.60;;;4.60;1.00;;;;;;5031334;28;20156;-75
2021/01/06 09:55:21;;;;;;;2.33;2.08;;;4.60;1.00;;;;;;5032958;28;20192;-75
2021/01/06 09:58:07;;;;;;;2.10;1.75;;;4.80;1.00;;;;;;5032868;28;20629;-75
2021/01/06 10:00:44;;;;;;;3.30;1.52;;;4.90;1.00;;;;;;5033423;28;20188;-78
2021/01/06 10:03:11;;;;;;;1.77;1.67;;;4.90;1.00;;;;;;5033069;28;20188;-78
2021/01/06 10:05:39;;;;;;;2.25;1.88;;;5.00;1.00;;;;;;5032748;28;20184;-78
2021/01/06 10:08:25;;;;;;;4.07;2.25;;;5.00;1.00;;;;;;5039652;28;20706;-75
2021/01/06 10:10:56;;;;;;;3.08;1.70;;;5.10;1.00;;;;;;5052680;28;20183;-75
2021/01/06 10:13:34;;;;;;;2.58;1.80;;;5.10;1.00;;;;;;5052520;28;20182;-75
2021/01/06 10:16:11;;;;;;;2.35;1.80;;;5.00;1.00;;;;;;5052527;28;20190;-78
2021/01/06 10:19:07;;;;;;;3.67;2.17;;;5.10;1.00;;;;;;5045325;28;20671;-78
2021/01/06 10:21:47;;;;;;;2.33;1.73;;;5.30;1.00;;;;;;5051238;28;20170;-75
2021/01/06 10:24:37;;;;;;;4.60;1.75;;;5.20;1.00;;;;;;5052951;28;20192;-75
2021/01/06 10:27:23;;;;;;;3.97;1.73;;;5.20;1.00;;;;;;5052559;28;20242;-78
2021/01/06 10:29:52;;;;;;;2.75;1.85;;;5.20;1.00;;;;;;5052599;28;20177;-75
2021/01/06 10:32:38;;;;;;;2.83;2.30;;;5.20;1.00;;;;;;5052461;28;20162;-75
2021/01/06 10:35:27;;;;;;;2.17;2.08;;;5.10;1.00;;;;;;5046871;28;20601;-75
2021/01/06 10:37:53;;;;;;;2.67;1.90;;;5.10;1.00;;;;;;5056420;28;20172;-78
2021/01/06 10:40:33;;;;;;;1.65;1.55;;;4.90;1.00;;;;;;5039651;28;20172;-78
2021/01/06 10:43:38;;;;;;;4.13;2.13;;;5.10;1.00;;;;;;5056163;28;20195;-78
2021/01/06 10:46:36;;;;;;;2.83;2.47;;;5.20;1.00;;;;;;5056023;28;20208;-78
2021/01/06 10:49:04;;;;;;;2.17;1.90;;;5.30;1.00;;;;;;5056480;28;20552;-75
2021/01/06 10:51:57;;;;;;;6.57;2.15;;;5.50;1.00;;;;;;5056290;28;20217;-75
2021/01/06 10:54:41;;;;;;;3.30;1.63;;;5.60;1.00;;;;;;5056642;28;20159;-75
2021/01/06 10:57:30;;;;;;;3.60;1.90;;;5.50;1.00;;;;;;5056091;28;20654;-75
2021/01/06 11:00:19;;;;;;;2.20;1.63;;;5.40;1.00;;;;;;5056445;28;20183;-75
2021/01/06 11:03:09;;;;;;;2.58;1.95;;;5.50;1.00;;;;;;5056044;28;20160;-75
2021/01/06 11:05:41;;;;;;;2.70;1.77;;;5.60;1.00;;;;;;5054683;28;20180;-75
2021/01/06 11:08:28;;;;;;;2.80;2.27;;;5.70;1.00;;;;;;5049380;28;20893;-76
2021/01/06 11:11:12;;;;;;;2.43;2.20;;;5.70;1.00;;;;;;5036039;28;20407;-75
2021/01/06 11:14:07;;;;;;;2.90;2.00;;;5.70;1.00;;;;;;5035744;28;20423;-75
2021/01/06 11:16:45;;;;;;;2.93;1.83;;;5.70;1.00;;;;;;5013842;28;20459;-78
2021/01/06 11:19:55;;;;;;;2.13;1.80;;;5.90;1.00;;;;;;5013904;28;20427;-78
2021/01/06 11:22:21;;;;;;;2.23;2.00;;;;;;;;;;4955260;29;20419;-78
2021/01/06 11:24:52;;;;;;;3.97;1.80;;;5.50;1.00;;;;;;4955981;29;20419;-78
2021/01/06 11:27:44;;;;;;;5.83;2.50;;;5.60;1.00;;;;;;4954479;29;20473;-78
2021/01/06 11:30:36;;;;;;;3.83;2.03;;;5.50;1.00;;;;;;4948996;29;20427;-78
2021/01/06 11:33:14;;;;;;;3.63;2.57;;;5.70;1.00;;;;;;4954974;29;20411;-78
2021/01/06 11:35:51;;;;;;;2.60;2.20;;;5.60;1.00;;;;;;4955202;29;20465;-78
2021/01/06 11:38:38;;;;;;;1.73;1.60;;;5.60;1.00;;;;;;4955445;29;20688;-76
2021/01/06 11:41:12;;;;;;;2.33;2.10;;;5.70;1.00;;;;;;4945514;29;20434;-75
2021/01/06 11:44:09;;;;;;;2.50;1.90;;;5.70;1.00;;;;;;4946694;28;20427;-75
2021/01/06 11:46:52;;;;;;;2.03;1.53;;;5.70;1.00;;;;;;4953153;29;20565;-75
2021/01/06 11:49:31;;;;;;;1.70;1.60;;;5.80;1.00;;;;;;4954045;29;20417;-78
2021/01/06 11:52:23;;;;;;;2.43;2.20;;;5.50;1.00;;;;;;4956078;28;20407;-78
2021/01/06 11:54:55;;;;;;;2.27;2.07;;;5.50;1.00;;;;;;4972409;28;20418;-75
2021/01/06 11:57:39;;;;;;;2.30;1.63;;;5.40;1.00;;;;;;4982389;28;20429;-75
2021/01/06 12:00:11;;;;;;;3.10;2.57;;;5.30;1.00;;;;;;5046003;28;20421;-75
2021/01/06 12:03:07;;;;;;;1.70;1.60;;;5.50;1.00;;;;;;5054590;28;20427;-75
2021/01/06 12:05:58;;;;;;;2.10;1.90;;;5.50;1.00;;;;;;5054738;28;20383;-75
2021/01/06 12:08:39;;;;;;;1.77;1.67;;;;;;;;;;5054640;28;20160;-75
2021/01/06 12:11:30;;;;;;;3.53;2.00;;;5.40;1.00;;;;;;5054735;28;20386;-75
2021/01/06 12:14:05;;;;;;;2.37;2.17;;;5.50;1.00;;;;;;5053268;28;20426;-75
2021/01/06 12:16:43;;;;;;;2.47;1.55;;;5.50;1.00;;;;;;5054625;28;20441;-75
2021/01/06 12:19:08;;;;;;;2.90;2.00;;;5.50;1.00;;;;;;5054515;28;20179;-75
2021/01/06 12:21:45;;;;;;;3.33;2.17;;;5.60;1.00;;;;;;5054468;28;20440;-75
2021/01/06 12:24:29;;;;;;;1.90;1.53;;;5.60;1.00;;;;;;5054009;28;20696;-75
2021/01/06 12:26:59;;;;;;;2.00;1.70;;;5.60;1.00;;;;;;5049928;28;20402;-75
2021/01/06 12:29:29;;;;;;;1.73;1.43;;;5.50;1.00;;;;;;5054179;28;20488;-75
2021/01/06 12:32:32;;;;;;;2.00;1.60;;;5.60;1.00;;;;;;5054245;28;20414;-75
2021/01/06 12:35:16;;;;;;;2.27;1.80;;;5.70;1.00;;;;;;5054197;28;20401;-75
2021/01/06 12:37:43;;;;;;;2.43;1.90;;;5.70;1.00;;;;;;5054077;28;20398;-78
2021/01/06 12:40:12;;;;;;;2.85;2.00;;;5.50;1.00;;;;;;5052277;28;20418;-78
2021/01/06 12:42:48;;;;;;;1.80;1.70;;;5.60;1.00;;;;;;5033556;28;20710;-78
2021/01/06 12:45:15;;;;;;;1.93;1.70;;;;;;;;;;5035094;28;20877;-78
2021/01/06 12:47:48;;;;;;;1.60;1.50;;;5.70;1.00;;;;;;5038892;28;20406;-78
2021/01/06 12:50:24;;;;;;;1.80;1.70;;;5.80;1.00;;;;;;5054085;28;20383;-75
2021/01/06 12:53:16;;;;;;;1.50;1.40;;;5.70;1.00;;;;;;5038319;28;20406;-78
2021/01/06 12:55:54;;;;;;;1.57;1.30;;;5.60;1.00;;;;;;5034167;28;20965;-78
2021/01/06 12:58:31;;;;;;;1.67;1.47;;;5.80;1.00;;;;;;5033797;28;20423;-75
2021/01/06 13:01:08;;;;;;;2.73;1.77;;;5.90;1.00;;;;;;5044150;28;20416;-76
2021/01/06 13:03:49;;;;;;;2.93;1.70;;;6.10;1.00;;;;;;5043599;28;20489;-74
2021/01/06 13:06:23;;;;;;;2.53;1.83;;;6.20;1.00;;;;;;5051553;28;20414;-74
2021/01/06 13:09:24;;;;;;;2.53;2.00;;;6.30;1.00;;;;;;5048162;28;20983;-75
2021/01/06 13:12:13;;;;;;;9.47;1.60;;;6.50;1.00;;;;;;5040089;28;20172;-74
2021/01/06 13:14:44;;;;;;;1.77;1.50;;;6.50;1.00;;;;;;5015146;28;20424;-71
2021/01/06 13:17:40;;;;;;;1.50;1.40;;;6.60;1.00;;;;;;5029562;28;20474;-79
2021/01/06 13:21:00;;;;;;;1.60;1.50;;;6.50;1.00;;;;;;4973177;28;20796;-77
2021/01/06 13:24:12;;;;;;;2.80;1.77;;;6.60;1.00;;;;;;4972591;28;20489;-76
2021/01/06 13:26:45;;;;;;;1.90;1.80;;;6.50;1.00;;;;;;4986278;28;20444;-74
2021/01/06 13:29:16;;;;;;;1.47;1.37;;;6.40;1.00;;;;;;4992403;28;20413;-74
2021/01/06 13:32:08;;;;;;;5.50;2.70;;;6.10;1.00;;;;;;4987591;28;20414;-73
2021/01/06 13:34:47;;;;;;;5.10;2.70;;;5.90;1.00;;;;;;4896745;29;20425;-74
2021/01/06 13:37:13;;;;;;;2.70;2.30;;;5.80;1.00;;;;;;4896148;29;20520;-74
2021/01/06 13:40:05;;;;;;;3.30;2.00;;;5.90;1.00;;;;;;4897065;29;20452;-74
2021/01/06 13:42:59;;;;;;;2.20;1.50;;;6.00;1.00;;;;;;4896417;29;20189;-74
2021/01/06 13:45:51;;;;;;;4.90;2.13;;;6.00;1.00;;;;;;4894181;29;20532;-74
2021/01/06 13:48:23;;;;;;;2.23;1.73;;;6.00;1.00;;;;;;4898381;29;20434;-74
2021/01/06 13:50:58;;;;;;;3.57;2.50;;;6.10;1.00;;;;;;4898829;29;20428;-74
2021/01/06 13:53:44;;;;;;;2.77;1.97;;;6.00;1.00;;;;;;4915472;29;20411;-74
2021/01/06 13:56:41;;;;;;;4.70;2.30;;;5.90;1.00;;;;;;4936273;28;20543;-76
2021/01/06 13:59:55;;;;;;;2.30;2.00;;;6.00;1.00;;;;;;4991995;28;20441;-76
2021/01/06 14:02:57;;;;;;;2.10;1.67;;;5.90;1.00;;;;;;4992308;28;20425;-76
2021/01/06 14:05:40;;;;;;;1.73;1.63;;;6.00;1.00;;;;;;4974926;28;20461;-76
2021/01/06 14:08:26;;;;;;;1.63;1.53;;;6.00;1.00;;;;;;4987135;28;20414;-76
2021/01/06 14:10:52;;;;;;;2.20;1.90;;;;;;;;;;4986769;28;20456;-74
2021/01/06 14:13:42;;;;;;;1.43;1.20;;;6.00;1.00;;;;;;5049907;28;20426;-74
2021/01/06 14:16:27;;;;;;;1.57;1.40;;;6.00;1.00;;;;;;5039904;28;20466;-74
2021/01/06 14:19:17;;;;;;;1.40;1.30;;;6.00;1.00;;;;;;5033684;28;20474;-74
2021/01/06 14:22:33;;;;;;;1.47;1.30;;;6.00;1.00;;;;;;5033612;28;20525;-74
2021/01/06 14:25:01;;;;;;;1.40;1.30;;;;;;;;;;5011842;28;20420;-74
2021/01/06 14:27:46;;;;;;;2.20;1.20;;;5.90;1.00;;;;;;5011893;28;20435;-76
2021/01/06 14:30:32;;;;;;;2.20;1.17;;;5.80;1.00;;;;;;5012088;28;20887;-76
2021/01/06 14:33:12;;;;;;;4.07;1.33;;;5.70;1.00;;;;;;4992045;28;20859;-80
2021/01/06 14:36:05;;;;;;;1.93;1.37;;;5.70;1.00;;;;;;4992045;28;20460;-78
2021/01/06 14:38:43;;;;;;;1.20;1.20;;;5.40;1.00;;;;;;4992034;28;20389;-78
2021/01/06 14:41:24;;;;;;;1.50;1.40;;;5.40;1.00;;;;;;5001329;28;20599;-74
2021/01/06 14:44:08;;;;;;;0.90;0.90;;;5.30;1.00;;;;;;5011087;28;20431;-74
2021/01/06 14:47:03;;;;;;;1.15;1.05;;;5.20;1.00;;;;;;4995037;28;20515;-74
2021/01/06 14:49:35;;;;;;;1.58;1.27;;;5.20;1.00;;;;;;5011528;28;20215;-73
2021/01/06 14:52:20;;;;;;;1.70;1.45;;;5.20;1.00;;;;;;5010608;28;20223;-74
2021/01/06 14:55:18;;;;;;;1.48;1.38;;;5.30;1.00;;;;;;5011101;28;20196;-74
2021/01/06 14:58:16;;;;;;;4.05;1.30;;;5.40;1.00;;;;;;5011276;28;20189;-74
2021/01/06 15:00:48;;;;;;;1.20;1.05;;;5.50;1.00;;;;;;5018690;28;20189;-73
2021/01/06 15:03:29;;;;;;;1.23;1.13;;;5.50;1.00;;;;;;5044416;28;20203;-73
2021/01/06 15:06:06;;;;;;;2.40;1.47;;;5.60;1.00;;;;;;5051129;28;20870;-73
2021/01/06 15:09:26;;;;;;;1.43;1.33;;;5.60;1.00;;;;;;5033272;28;20391;-74
2021/01/06 15:12:10;;;;;;;1.47;1.37;;;5.60;1.00;;;;;;5010907;28;20431;-73
2021/01/06 15:14:48;;;;;;;4.97;1.30;;;5.70;1.00;;;;;;5010564;28;20519;-74
2021/01/06 15:17:20;;;;;;;3.13;1.47;;;5.70;1.00;;;;;;5011010;28;20513;-73
2021/01/06 15:19:53;;;;;;;1.67;1.30;;;5.70;1.00;;;;;;5011055;28;20428;-72
2021/01/06 15:22:32;;;;;;;1.30;1.20;;;5.70;1.00;;;;;;5011932;28;20419;-73
2021/01/06 15:25:00;;;;;;;1.53;1.43;;;5.70;1.00;;;;;;5012823;28;20416;-74
2021/01/06 15:27:31;;;;;;;1.50;1.40;;;5.70;1.00;;;;;;5015122;28;20396;-74
2021/01/06 15:30:22;;;;;;;1.80;1.70;;;5.70;1.00;;;;;;5014798;28;20412;-74
2021/01/06 15:33:04;;;;;;;1.73;1.63;;;5.70;1.00;;;;;;5013941;28;20246;-75
2021/01/06 15:36:03;;;;;;;1.40;1.13;;;5.80;1.00;;;;;;5014276;28;20463;-75
2021/01/06 15:38:29;;;;;;;1.40;1.30;;;5.70;1.00;;;;;;5014834;28;20821;-74
2021/01/06 15:41:00;;;;;;;1.20;1.00;;;5.70;1.00;;;;;;5013570;28;20427;-75
2021/01/06 15:43:45;;;;;;;3.17;1.20;;;5.70;1.00;;;;;;5054320;28;20418;-75
2021/01/06 15:46:34;;;;;;;1.17;1.13;;;5.70;1.00;;;;;;5056361;28;20893;-75